| time (UTC) | temp F | wind direction | speed MPH | gust MPH | rain 1hr in | rain 24hr in | rain mn in | humidity % | barometer mb |
| 20260503194219 | 48 | 0.0 | 0.0 | 0.00 | 0.00 | 0.00 | 69 | 1020.2 | |
| 20260503193215 | 48 | 0.0 | 0.0 | 0.00 | 0.00 | 0.00 | 67 | 1020.1 | |
| 20260503192211 | 48 | 0.0 | 0.0 | 0.00 | 0.00 | 0.00 | 65 | 1020.0 | |
| 20260503191154 | 48 | 0.0 | 0.0 | 0.00 | 0.00 | 0.00 | 62 | 1020.0 | |
| 20260503190150 | 48 | 0.0 | 0.0 | 0.00 | 0.00 | 0.00 | 62 | 1019.9 | |
| 20260503185146 | 48 | 0.0 | 0.0 | 0.00 | 0.00 | 0.00 | 60 | 1019.9 | |
| 20260503184141 | 49 | 0.0 | 0.0 | 0.00 | 0.00 | 0.00 | 59 | 1019.9 | |
| 20260503183137 | 49 | 0.0 | 0.0 | 0.00 | 0.00 | 0.00 | 58 | 1019.9 | |
| 20260503182133 | 50 | 0.0 | 0.0 | 0.00 | 0.00 | 0.00 | 56 | 1019.8 | |
| 20260503181129 | 50 | 0.0 | 0.0 | 0.00 | 0.00 | 0.00 | 55 | 1019.9 | |
| 20260503180125 | 51 | 0.0 | 0.0 | 0.00 | 0.00 | 0.00 | 54 | 1019.8 | |
| 20260503175121 | 51 | 0.0 | 0.0 | 0.00 | 0.00 | 0.00 | 52 | 1019.8 | |
| 20260503174117 | 52 | 0.0 | 0.0 | 0.00 | 0.00 | 0.00 | 51 | 1019.9 | |
| 20260503173113 | 53 | 0.0 | 0.0 | 0.00 | 0.00 | 0.00 | 50 | 1019.9 | |
| 20260503172108 | 54 | 0.0 | 0.0 | 0.00 | 0.00 | 0.00 | 49 | 1020.0 | |
| 20260503171104 | 55 | 0.0 | 0.0 | 0.00 | 0.00 | 0.00 | 49 | 1020.1 | |
| 20260503151005 | 68 | 0.0 | 0.0 | 0.00 | 0.00 | 0.00 | 40 | 1020.4 | |
| 20260503130851 | 70 | 0.0 | 0.0 | 0.00 | 0.00 | 0.00 | 37 | 1021.6 | |
| 20260503110735 | 70 | 0.0 | 0.0 | 0.00 | 0.00 | 0.00 | 35 | 1022.2 | |
| 20260503081531 | 61 | 0.0 | 0.0 | 0.00 | 0.00 | 0.00 | 45 | 1022.2 | |
| 20260503080526 | 60 | 0.0 | 0.0 | 0.00 | 0.00 | 0.00 | 46 | 1022.1 | |
| 20260503072508 | 59 | 0.0 | 0.0 | 0.00 | 0.00 | 0.00 | 44 | 1022.2 | |
| 20260503071504 | 58 | 0.0 | 0.0 | 0.00 | 0.00 | 0.00 | 44 | 1022.2 | |
| 20260503070500 | 58 | 0.0 | 0.0 | 0.00 | 0.00 | 0.00 | 44 | 1022.1 | |
| 20260503054418 | 53 | 0.0 | 0.0 | 0.00 | 0.00 | 0.00 | 41 | 1021.8 | |
| 20260503053414 | 54 | 0.0 | 0.0 | 0.00 | 0.00 | 0.00 | 40 | 1021.7 | |
| 20260503052410 | 56 | 0.0 | 0.0 | 0.00 | 0.00 | 0.00 | 38 | 1021.6 | |
| 20260503051405 | 52 | 0.0 | 0.0 | 0.00 | 0.00 | 0.00 | 39 | 1021.7 | |
| 20260503050401 | 51 | 0.0 | 0.0 | 0.00 | 0.00 | 0.00 | 39 | 1021.7 | |
| 20260503045357 | 51 | 0.0 | 0.0 | 0.00 | 0.00 | 0.00 | 39 | 1021.7 | |
| 20260503044353 | 50 | 0.0 | 0.0 | 0.00 | 0.00 | 0.00 | 42 | 1021.8 | |
| 20260503043349 | 50 | 0.0 | 0.0 | 0.00 | 0.00 | 0.00 | 40 | 1021.8 | |
| 20260503042336 | 49 | 0.0 | 0.0 | 0.00 | 0.00 | 0.00 | 40 | 1021.7 | |
| 20260503041332 | 50 | 0.0 | 0.0 | 0.00 | 0.00 | 0.00 | 40 | 1021.7 | |
| 20260503040328 | 50 | 0.0 | 0.0 | 0.00 | 0.00 | 0.00 | 40 | 1021.7 | |
| 20260503035324 | 50 | 0.0 | 0.0 | 0.00 | 0.00 | 0.00 | 39 | 1021.7 | |
| 20260503034320 | 49 | 0.0 | 0.0 | 0.00 | 0.00 | 0.00 | 40 | 1021.7 | |
| 20260503033316 | 50 | 0.0 | 0.0 | 0.00 | 0.00 | 0.00 | 39 | 1021.7 | |
| 20260503032310 | 50 | 0.0 | 0.0 | 0.00 | 0.00 | 0.00 | 39 | 1021.7 | |
| 20260503031258 | 50 | 0.0 | 0.0 | 0.00 | 0.00 | 0.00 | 39 | 1021.8 | |
| 20260503030254 | 51 | 0.0 | 0.0 | 0.00 | 0.00 | 0.00 | 37 | 1021.9 | |
| 20260503025250 | 51 | 0.0 | 0.0 | 0.00 | 0.00 | 0.00 | 37 | 1021.8 | |
| 20260503024245 | 51 | 0.0 | 0.0 | 0.00 | 0.00 | 0.00 | 37 | 1021.9 | |
| 20260503023241 | 52 | 0.0 | 0.0 | 0.00 | 0.00 | 0.00 | 35 | 1022.0 | |
| 20260503022237 | 52 | 0.0 | 0.0 | 0.00 | 0.00 | 0.00 | 34 | 1022.0 | |
| 20260503021233 | 52 | 0.0 | 0.0 | 0.00 | 0.00 | 0.00 | 34 | 1022.0 | |
| 20260503020229 | 52 | 0.0 | 0.0 | 0.00 | 0.00 | 0.00 | 35 | 1022.0 | |
| 20260503015225 | 52 | 0.0 | 0.0 | 0.00 | 0.00 | 0.00 | 35 | 1022.1 | |
| 20260503014221 | 51 | 0.0 | 0.0 | 0.00 | 0.00 | 0.00 | 40 | 1022.1 | |
| 20260503013217 | 51 | 0.0 | 0.0 | 0.00 | 0.00 | 0.00 | 40 | 1022.2 | |
| 20260503012213 | 52 | 0.0 | 0.0 | 0.00 | 0.00 | 0.00 | 40 | 1022.2 | |
| 20260503011208 | 52 | 0.0 | 0.0 | 0.00 | 0.00 | 0.00 | 40 | 1022.3 | |
| 20260503010204 | 52 | 0.0 | 0.0 | 0.00 | 0.00 | 0.00 | 38 | 1022.3 | |
| 20260503005200 | 53 | 0.0 | 0.0 | 0.00 | 0.00 | 0.00 | 36 | 1022.4 | |
| 20260503004156 | 53 | 0.0 | 0.0 | 0.00 | 0.00 | 0.00 | 33 | 1022.4 | |
| 20260503003152 | 52 | 0.0 | 0.0 | 0.00 | 0.00 | 0.00 | 37 | 1022.6 | |
| 20260503002148 | 52 | 0.0 | 0.0 | 0.00 | 0.00 | 0.00 | 39 | 1022.8 | |
| 20260503001144 | 52 | 0.0 | 0.0 | 0.00 | 0.00 | 0.00 | 41 | 1022.9 | |
| 20260503000140 | 53 | 0.0 | 0.0 | 0.00 | 0.00 | 0.00 | 39 | 1022.9 | |
| 20260502235136 | 53 | 0.0 | 0.0 | 0.00 | 0.00 | 0.00 | 38 | 1022.9 | |
| 20260502234131 | 53 | 0.0 | 0.0 | 0.00 | 0.00 | 0.00 | 38 | 1023.0 | |
| 20260502233127 | 53 | 0.0 | 0.0 | 0.00 | 0.00 | 0.00 | 38 | 1023.0 | |
| 20260502232123 | 53 | 0.0 | 0.0 | 0.00 | 0.00 | 0.00 | 37 | 1023.2 | |
| 20260502231109 | 52 | 0.0 | 0.0 | 0.00 | 0.00 | 0.00 | 38 | 1023.3 | |
| 20260502230105 | 52 | 0.0 | 0.0 | 0.00 | 0.00 | 0.00 | 38 | 1023.3 | |
| 20260502225101 | 52 | 0.0 | 0.0 | 0.00 | 0.00 | 0.00 | 38 | 1023.3 | |
| 20260502224057 | 52 | 0.0 | 0.0 | 0.00 | 0.00 | 0.00 | 37 | 1023.4 | |
| 20260502223052 | 52 | 0.0 | 0.0 | 0.00 | 0.00 | 0.00 | 37 | 1023.4 | |
| 20260502222048 | 52 | 0.0 | 0.0 | 0.00 | 0.00 | 0.00 | 37 | 1023.4 | |
| 20260502221044 | 52 | 0.0 | 0.0 | 0.00 | 0.00 | 0.00 | 37 | 1023.5 | |
| 20260502220040 | 53 | 0.0 | 0.0 | 0.00 | 0.00 | 0.00 | 36 | 1023.4 | |
| 20260502215036 | 54 | 0.0 | 0.0 | 0.00 | 0.00 | 0.00 | 36 | 1023.5 | |
| 20260502214032 | 54 | 0.0 | 0.0 | 0.00 | 0.00 | 0.00 | 35 | 1023.6 | |
| 20260502213028 | 54 | 0.0 | 0.0 | 0.00 | 0.00 | 0.00 | 35 | 1023.6 | |
| 20260502212024 | 55 | 0.0 | 0.0 | 0.00 | 0.00 | 0.00 | 33 | 1023.5 | |
| 20260502211020 | 56 | 0.0 | 0.0 | 0.00 | 0.00 | 0.00 | 31 | 1023.6 | |
| 20260502210015 | 56 | 0.0 | 0.0 | 0.00 | 0.00 | 0.00 | 29 | 1023.7 | |
| 20260502205011 | 56 | 0.0 | 0.0 | 0.00 | 0.00 | 0.00 | 30 | 1023.7 | |
| 20260502204007 | 56 | 0.0 | 0.0 | 0.00 | 0.00 | 0.00 | 32 | 1023.9 | |
| 20260502203003 | 55 | 0.0 | 0.0 | 0.00 | 0.00 | 0.00 | 32 | 1023.9 | |
| 20260502201959 | 55 | 0.0 | 0.0 | 0.00 | 0.00 | 0.00 | 34 | 1023.9 | |
| 20260502200955 | 55 | 0.0 | 0.0 | 0.00 | 0.00 | 0.00 | 39 | 1023.9 | |
| 20260502195951 | 55 | 0.0 | 0.0 | 0.00 | 0.00 | 0.00 | 39 | 1023.9 | |
| 20260502194946 | 55 | 0.0 | 0.0 | 0.00 | 0.00 | 0.00 | 39 | 1024.0 |